sensor_id;sensor_type;location;lat;lon;timestamp;temperature;humidity
40636;DHT22;26642;55.766;37.828;2022-10-16T00:00:00;13.10;61.60
40636;DHT22;26642;55.766;37.828;2022-10-16T00:02:26;13.10;61.60
40636;DHT22;26642;55.766;37.828;2022-10-16T00:04:52;13.00;61.60
40636;DHT22;26642;55.766;37.828;2022-10-16T00:07:20;13.00;61.60
40636;DHT22;26642;55.766;37.828;2022-10-16T00:09:46;13.00;61.60
40636;DHT22;26642;55.766;37.828;2022-10-16T00:12:12;13.00;61.50
40636;DHT22;26642;55.766;37.828;2022-10-16T00:14:38;13.00;61.40
40636;DHT22;26642;55.766;37.828;2022-10-16T00:17:06;13.00;61.60
40636;DHT22;26642;55.766;37.828;2022-10-16T00:19:32;13.00;61.70
40636;DHT22;26642;55.766;37.828;2022-10-16T00:21:58;12.90;61.60
40636;DHT22;26642;55.766;37.828;2022-10-16T00:24:42;13.00;61.60
40636;DHT22;26642;55.766;37.828;2022-10-16T00:27:08;13.00;61.70
40636;DHT22;26642;55.766;37.828;2022-10-16T00:29:34;12.90;61.80
40636;DHT22;26642;55.766;37.828;2022-10-16T00:32:00;12.90;61.80
40636;DHT22;26642;55.766;37.828;2022-10-16T00:34:26;12.90;61.80
40636;DHT22;26642;55.766;37.828;2022-10-16T00:36:51;12.80;61.90
40636;DHT22;26642;55.766;37.828;2022-10-16T00:39:17;12.90;61.90
40636;DHT22;26642;55.766;37.828;2022-10-16T00:41:43;12.90;61.90
40636;DHT22;26642;55.766;37.828;2022-10-16T00:47:17;12.80;61.80
40636;DHT22;26642;55.766;37.828;2022-10-16T00:49:44;12.80;61.80
40636;DHT22;26642;55.766;37.828;2022-10-16T00:52:10;12.80;61.90
40636;DHT22;26642;55.766;37.828;2022-10-16T00:54:36;12.80;61.80
40636;DHT22;26642;55.766;37.828;2022-10-16T00:57:04;12.80;61.90
40636;DHT22;26642;55.766;37.828;2022-10-16T00:59:37;12.80;61.90
40636;DHT22;26642;55.766;37.828;2022-10-16T01:02:05;12.70;61.90
40636;DHT22;26642;55.766;37.828;2022-10-16T01:04:39;12.70;62.00
40636;DHT22;26642;55.766;37.828;2022-10-16T01:07:30;12.70;62.00
40636;DHT22;26642;55.766;37.828;2022-10-16T01:15:46;12.70;62.10
40636;DHT22;26642;55.766;37.828;2022-10-16T01:21:34;12.60;62.10
40636;DHT22;26642;55.766;37.828;2022-10-16T01:24:03;12.60;61.90
40636;DHT22;26642;55.766;37.828;2022-10-16T01:31:54;12.60;61.90
40636;DHT22;26642;55.766;37.828;2022-10-16T01:34:28;12.60;62.10
40636;DHT22;26642;55.766;37.828;2022-10-16T01:37:04;12.60;62.30
40636;DHT22;26642;55.766;37.828;2022-10-16T01:39:33;12.60;62.20
40636;DHT22;26642;55.766;37.828;2022-10-16T01:42:21;12.50;62.10
40636;DHT22;26642;55.766;37.828;2022-10-16T01:44:51;12.50;62.20
40636;DHT22;26642;55.766;37.828;2022-10-16T01:47:22;12.50;62.20
40636;DHT22;26642;55.766;37.828;2022-10-16T01:49:51;12.50;62.10
40636;DHT22;26642;55.766;37.828;2022-10-16T01:52:21;12.50;62.10
40636;DHT22;26642;55.766;37.828;2022-10-16T01:54:52;12.50;62.00
40636;DHT22;26642;55.766;37.828;2022-10-16T01:57:21;12.50;62.10
40636;DHT22;26642;55.766;37.828;2022-10-16T01:59:52;12.40;62.00
40636;DHT22;26642;55.766;37.828;2022-10-16T02:02:21;12.40;62.10
40636;DHT22;26642;55.766;37.828;2022-10-16T02:05:04;12.40;62.20
40636;DHT22;26642;55.766;37.828;2022-10-16T02:07:31;12.40;62.10
40636;DHT22;26642;55.766;37.828;2022-10-16T02:09:57;12.40;62.00
40636;DHT22;26642;55.766;37.828;2022-10-16T02:12:28;12.40;62.00
40636;DHT22;26642;55.766;37.828;2022-10-16T02:14:55;12.40;62.00
40636;DHT22;26642;55.766;37.828;2022-10-16T02:17:21;12.30;62.00
40636;DHT22;26642;55.766;37.828;2022-10-16T02:19:50;12.30;62.00
40636;DHT22;26642;55.766;37.828;2022-10-16T02:22:36;12.30;62.00
40636;DHT22;26642;55.766;37.828;2022-10-16T02:25:11;12.30;62.20
40636;DHT22;26642;55.766;37.828;2022-10-16T02:30:28;12.30;62.20
40636;DHT22;26642;55.766;37.828;2022-10-16T02:32:58;12.30;62.50
40636;DHT22;26642;55.766;37.828;2022-10-16T02:35:25;12.30;62.70
40636;DHT22;26642;55.766;37.828;2022-10-16T02:37:53;12.30;62.50
40636;DHT22;26642;55.766;37.828;2022-10-16T02:40:20;12.30;62.50
40636;DHT22;26642;55.766;37.828;2022-10-16T02:42:53;12.30;62.30
40636;DHT22;26642;55.766;37.828;2022-10-16T02:45:20;12.30;62.30
40636;DHT22;26642;55.766;37.828;2022-10-16T02:47:46;12.30;62.50
40636;DHT22;26642;55.766;37.828;2022-10-16T02:50:12;12.30;62.50
40636;DHT22;26642;55.766;37.828;2022-10-16T02:52:38;12.30;62.40
40636;DHT22;26642;55.766;37.828;2022-10-16T02:55:04;12.30;62.20
40636;DHT22;26642;55.766;37.828;2022-10-16T02:57:30;12.20;62.40
40636;DHT22;26642;55.766;37.828;2022-10-16T02:59:57;12.20;62.40
40636;DHT22;26642;55.766;37.828;2022-10-16T03:02:23;12.20;62.30
40636;DHT22;26642;55.766;37.828;2022-10-16T03:04:49;12.20;62.40
40636;DHT22;26642;55.766;37.828;2022-10-16T03:07:15;12.20;62.70
40636;DHT22;26642;55.766;37.828;2022-10-16T03:09:41;12.20;62.80
40636;DHT22;26642;55.766;37.828;2022-10-16T03:12:07;12.20;62.70
40636;DHT22;26642;55.766;37.828;2022-10-16T03:14:34;12.20;62.60
40636;DHT22;26642;55.766;37.828;2022-10-16T03:17:00;12.20;62.40
40636;DHT22;26642;55.766;37.828;2022-10-16T03:19:26;12.20;62.70
40636;DHT22;26642;55.766;37.828;2022-10-16T03:21:52;12.20;62.70
40636;DHT22;26642;55.766;37.828;2022-10-16T03:24:17;12.20;62.60
40636;DHT22;26642;55.766;37.828;2022-10-16T03:26:43;12.20;62.60
40636;DHT22;26642;55.766;37.828;2022-10-16T03:29:09;12.20;62.70
40636;DHT22;26642;55.766;37.828;2022-10-16T03:31:35;12.20;62.60
40636;DHT22;26642;55.766;37.828;2022-10-16T03:34:01;12.10;62.50
40636;DHT22;26642;55.766;37.828;2022-10-16T03:36:27;12.10;62.50
40636;DHT22;26642;55.766;37.828;2022-10-16T03:38:53;12.10;62.70
40636;DHT22;26642;55.766;37.828;2022-10-16T03:41:19;12.10;62.90
40636;DHT22;26642;55.766;37.828;2022-10-16T03:43:45;12.10;62.80
40636;DHT22;26642;55.766;37.828;2022-10-16T03:46:11;12.10;62.50
40636;DHT22;26642;55.766;37.828;2022-10-16T03:48:37;12.10;62.50
40636;DHT22;26642;55.766;37.828;2022-10-16T03:51:03;12.10;62.60
40636;DHT22;26642;55.766;37.828;2022-10-16T03:53:28;12.10;62.50
40636;DHT22;26642;55.766;37.828;2022-10-16T03:55:54;12.00;62.50
40636;DHT22;26642;55.766;37.828;2022-10-16T03:58:20;12.00;62.60
40636;DHT22;26642;55.766;37.828;2022-10-16T04:00:46;12.00;62.60
40636;DHT22;26642;55.766;37.828;2022-10-16T04:03:15;12.00;62.70
40636;DHT22;26642;55.766;37.828;2022-10-16T04:05:42;12.00;62.80
40636;DHT22;26642;55.766;37.828;2022-10-16T04:08:08;12.00;62.80
40636;DHT22;26642;55.766;37.828;2022-10-16T04:10:34;12.00;62.70
40636;DHT22;26642;55.766;37.828;2022-10-16T04:13:00;12.00;62.80
40636;DHT22;26642;55.766;37.828;2022-10-16T04:15:26;12.00;62.80
40636;DHT22;26642;55.766;37.828;2022-10-16T04:17:53;11.90;62.70
40636;DHT22;26642;55.766;37.828;2022-10-16T04:20:19;11.90;62.60
40636;DHT22;26642;55.766;37.828;2022-10-16T04:22:45;11.90;62.80
40636;DHT22;26642;55.766;37.828;2022-10-16T04:25:11;11.90;62.70
40636;DHT22;26642;55.766;37.828;2022-10-16T04:27:38;11.90;62.60
40636;DHT22;26642;55.766;37.828;2022-10-16T04:30:04;11.90;62.60
40636;DHT22;26642;55.766;37.828;2022-10-16T04:32:30;11.90;62.60
40636;DHT22;26642;55.766;37.828;2022-10-16T04:34:56;11.90;62.60
40636;DHT22;26642;55.766;37.828;2022-10-16T04:37:26;11.90;62.60
40636;DHT22;26642;55.766;37.828;2022-10-16T04:39:53;11.90;62.60
40636;DHT22;26642;55.766;37.828;2022-10-16T04:42:20;11.90;62.50
40636;DHT22;26642;55.766;37.828;2022-10-16T04:44:46;11.90;62.50
40636;DHT22;26642;55.766;37.828;2022-10-16T04:47:13;11.90;62.70
40636;DHT22;26642;55.766;37.828;2022-10-16T04:49:39;11.90;62.80
40636;DHT22;26642;55.766;37.828;2022-10-16T04:52:05;11.90;62.60
40636;DHT22;26642;55.766;37.828;2022-10-16T04:54:31;11.90;62.70
40636;DHT22;26642;55.766;37.828;2022-10-16T04:56:57;11.90;62.90
40636;DHT22;26642;55.766;37.828;2022-10-16T04:59:23;11.90;63.00
40636;DHT22;26642;55.766;37.828;2022-10-16T05:01:49;12.00;63.10
40636;DHT22;26642;55.766;37.828;2022-10-16T05:04:15;12.10;62.90
40636;DHT22;26642;55.766;37.828;2022-10-16T05:06:41;12.20;62.60
40636;DHT22;26642;55.766;37.828;2022-10-16T05:09:08;12.30;62.30
40636;DHT22;26642;55.766;37.828;2022-10-16T05:11:35;12.50;62.20
40636;DHT22;26642;55.766;37.828;2022-10-16T05:14:01;12.60;62.00
40636;DHT22;26642;55.766;37.828;2022-10-16T05:16:27;12.80;61.60
40636;DHT22;26642;55.766;37.828;2022-10-16T05:18:53;12.90;61.40
40636;DHT22;26642;55.766;37.828;2022-10-16T05:21:19;13.10;61.10
40636;DHT22;26642;55.766;37.828;2022-10-16T05:23:45;13.20;60.80
40636;DHT22;26642;55.766;37.828;2022-10-16T05:26:12;13.40;60.70
40636;DHT22;26642;55.766;37.828;2022-10-16T05:28:37;13.50;60.40
40636;DHT22;26642;55.766;37.828;2022-10-16T05:31:07;13.70;60.00
40636;DHT22;26642;55.766;37.828;2022-10-16T05:33:34;13.80;59.60
40636;DHT22;26642;55.766;37.828;2022-10-16T05:36:05;13.90;59.60
40636;DHT22;26642;55.766;37.828;2022-10-16T05:38:33;14.10;59.40
40636;DHT22;26642;55.766;37.828;2022-10-16T05:40:59;14.20;59.00
40636;DHT22;26642;55.766;37.828;2022-10-16T05:43:26;14.40;58.80
40636;DHT22;26642;55.766;37.828;2022-10-16T05:46:06;14.50;58.40
40636;DHT22;26642;55.766;37.828;2022-10-16T05:48:33;14.60;58.00
40636;DHT22;26642;55.766;37.828;2022-10-16T05:50:59;14.80;57.60
40636;DHT22;26642;55.766;37.828;2022-10-16T05:53:27;14.90;57.10
40636;DHT22;26642;55.766;37.828;2022-10-16T05:55:55;15.00;56.80
40636;DHT22;26642;55.766;37.828;2022-10-16T05:58:22;15.10;57.00
40636;DHT22;26642;55.766;37.828;2022-10-16T06:00:59;15.20;56.40
40636;DHT22;26642;55.766;37.828;2022-10-16T06:03:25;15.30;56.40
40636;DHT22;26642;55.766;37.828;2022-10-16T06:05:51;15.50;56.00
40636;DHT22;26642;55.766;37.828;2022-10-16T06:08:19;15.60;55.70
40636;DHT22;26642;55.766;37.828;2022-10-16T06:10:46;15.70;55.10
40636;DHT22;26642;55.766;37.828;2022-10-16T06:13:13;15.80;55.10
40636;DHT22;26642;55.766;37.828;2022-10-16T06:15:40;16.00;55.20
40636;DHT22;26642;55.766;37.828;2022-10-16T06:18:10;16.10;55.10
40636;DHT22;26642;55.766;37.828;2022-10-16T06:20:37;16.20;54.90
40636;DHT22;26642;55.766;37.828;2022-10-16T06:23:04;16.30;55.20
40636;DHT22;26642;55.766;37.828;2022-10-16T06:25:31;16.40;54.50
40636;DHT22;26642;55.766;37.828;2022-10-16T06:27:57;16.50;54.20
40636;DHT22;26642;55.766;37.828;2022-10-16T06:30:23;16.70;54.10
40636;DHT22;26642;55.766;37.828;2022-10-16T06:32:48;16.70;54.10
40636;DHT22;26642;55.766;37.828;2022-10-16T06:35:14;16.80;53.90
40636;DHT22;26642;55.766;37.828;2022-10-16T06:37:40;17.00;53.60
40636;DHT22;26642;55.766;37.828;2022-10-16T06:40:06;17.00;53.50
40636;DHT22;26642;55.766;37.828;2022-10-16T06:42:34;17.10;53.40
40636;DHT22;26642;55.766;37.828;2022-10-16T06:45:00;17.20;53.30
40636;DHT22;26642;55.766;37.828;2022-10-16T06:47:27;17.30;53.30
40636;DHT22;26642;55.766;37.828;2022-10-16T06:49:53;17.40;53.00
40636;DHT22;26642;55.766;37.828;2022-10-16T06:52:19;17.50;52.50
40636;DHT22;26642;55.766;37.828;2022-10-16T06:54:45;17.60;52.10
40636;DHT22;26642;55.766;37.828;2022-10-16T06:57:11;17.60;52.20
40636;DHT22;26642;55.766;37.828;2022-10-16T06:59:36;17.70;52.00
40636;DHT22;26642;55.766;37.828;2022-10-16T07:02:02;17.70;51.60
40636;DHT22;26642;55.766;37.828;2022-10-16T07:04:28;17.90;51.80
40636;DHT22;26642;55.766;37.828;2022-10-16T07:06:54;17.90;51.60
40636;DHT22;26642;55.766;37.828;2022-10-16T07:09:20;18.00;51.60
40636;DHT22;26642;55.766;37.828;2022-10-16T07:11:46;18.10;51.40
40636;DHT22;26642;55.766;37.828;2022-10-16T07:14:17;18.10;51.30
40636;DHT22;26642;55.766;37.828;2022-10-16T07:16:43;18.20;51.00
40636;DHT22;26642;55.766;37.828;2022-10-16T07:19:09;18.30;50.60
40636;DHT22;26642;55.766;37.828;2022-10-16T07:21:37;18.30;50.90
40636;DHT22;26642;55.766;37.828;2022-10-16T07:24:11;18.30;50.70
40636;DHT22;26642;55.766;37.828;2022-10-16T07:26:37;18.40;50.50
40636;DHT22;26642;55.766;37.828;2022-10-16T07:29:07;18.40;50.30
40636;DHT22;26642;55.766;37.828;2022-10-16T07:31:34;18.40;50.10
40636;DHT22;26642;55.766;37.828;2022-10-16T07:34:00;18.50;50.20
40636;DHT22;26642;55.766;37.828;2022-10-16T07:36:27;18.50;50.00
40636;DHT22;26642;55.766;37.828;2022-10-16T07:38:53;18.50;50.20
40636;DHT22;26642;55.766;37.828;2022-10-16T07:41:19;18.50;50.00
40636;DHT22;26642;55.766;37.828;2022-10-16T07:43:50;18.50;50.00
40636;DHT22;26642;55.766;37.828;2022-10-16T07:46:17;18.50;50.00
40636;DHT22;26642;55.766;37.828;2022-10-16T07:48:44;18.50;50.10
40636;DHT22;26642;55.766;37.828;2022-10-16T07:51:17;18.50;49.80
40636;DHT22;26642;55.766;37.828;2022-10-16T07:53:43;18.50;51.20
40636;DHT22;26642;55.766;37.828;2022-10-16T07:56:10;18.50;51.80
40636;DHT22;26642;55.766;37.828;2022-10-16T07:58:37;18.50;51.50
40636;DHT22;26642;55.766;37.828;2022-10-16T08:01:05;18.50;51.00
40636;DHT22;26642;55.766;37.828;2022-10-16T08:03:31;18.50;50.70
40636;DHT22;26642;55.766;37.828;2022-10-16T08:05:57;18.50;51.50
40636;DHT22;26642;55.766;37.828;2022-10-16T08:08:23;18.50;50.90
40636;DHT22;26642;55.766;37.828;2022-10-16T08:10:49;18.40;51.10
40636;DHT22;26642;55.766;37.828;2022-10-16T08:13:16;18.40;51.20
40636;DHT22;26642;55.766;37.828;2022-10-16T08:15:45;18.40;51.00
40636;DHT22;26642;55.766;37.828;2022-10-16T08:18:13;18.40;51.10
40636;DHT22;26642;55.766;37.828;2022-10-16T08:20:40;18.40;51.00
40636;DHT22;26642;55.766;37.828;2022-10-16T08:23:06;18.30;50.90
40636;DHT22;26642;55.766;37.828;2022-10-16T08:25:35;18.30;50.80
40636;DHT22;26642;55.766;37.828;2022-10-16T08:28:09;18.30;50.90
40636;DHT22;26642;55.766;37.828;2022-10-16T08:30:35;18.30;50.80
40636;DHT22;26642;55.766;37.828;2022-10-16T08:33:02;18.30;54.70
40636;DHT22;26642;55.766;37.828;2022-10-16T08:35:28;18.40;54.50
40636;DHT22;26642;55.766;37.828;2022-10-16T08:37:54;18.40;53.80
40636;DHT22;26642;55.766;37.828;2022-10-16T08:40:28;18.30;53.30
40636;DHT22;26642;55.766;37.828;2022-10-16T08:48:27;18.20;52.20
40636;DHT22;26642;55.766;37.828;2022-10-16T08:50:55;18.20;52.10
40636;DHT22;26642;55.766;37.828;2022-10-16T08:53:30;18.20;52.50
40636;DHT22;26642;55.766;37.828;2022-10-16T08:55:57;18.10;52.60
40636;DHT22;26642;55.766;37.828;2022-10-16T08:58:28;18.10;52.60
40636;DHT22;26642;55.766;37.828;2022-10-16T09:00:57;18.00;52.70
40636;DHT22;26642;55.766;37.828;2022-10-16T09:11:53;17.90;53.60
40636;DHT22;26642;55.766;37.828;2022-10-16T09:19:53;17.90;54.20
40636;DHT22;26642;55.766;37.828;2022-10-16T09:22:27;17.90;54.30
40636;DHT22;26642;55.766;37.828;2022-10-16T09:24:57;17.80;54.10
40636;DHT22;26642;55.766;37.828;2022-10-16T09:27:26;17.80;54.30
40636;DHT22;26642;55.766;37.828;2022-10-16T09:29:52;17.80;54.30
40636;DHT22;26642;55.766;37.828;2022-10-16T09:32:20;17.80;54.30
40636;DHT22;26642;55.766;37.828;2022-10-16T09:34:55;17.80;54.20
40636;DHT22;26642;55.766;37.828;2022-10-16T09:37:25;17.80;53.90
40636;DHT22;26642;55.766;37.828;2022-10-16T09:39:53;17.80;53.90
40636;DHT22;26642;55.766;37.828;2022-10-16T09:42:21;17.70;53.80
40636;DHT22;26642;55.766;37.828;2022-10-16T09:44:51;17.70;53.50
40636;DHT22;26642;55.766;37.828;2022-10-16T09:47:26;17.70;53.10
40636;DHT22;26642;55.766;37.828;2022-10-16T09:49:56;17.70;52.80
40636;DHT22;26642;55.766;37.828;2022-10-16T09:52:24;17.60;52.60
40636;DHT22;26642;55.766;37.828;2022-10-16T09:54:53;17.60;52.70
40636;DHT22;26642;55.766;37.828;2022-10-16T09:57:20;17.60;52.70
40636;DHT22;26642;55.766;37.828;2022-10-16T09:59:54;17.60;52.90
40636;DHT22;26642;55.766;37.828;2022-10-16T10:02:38;17.50;52.80
40636;DHT22;26642;55.766;37.828;2022-10-16T10:05:06;17.60;53.10
40636;DHT22;26642;55.766;37.828;2022-10-16T10:07:44;17.50;52.50
40636;DHT22;26642;55.766;37.828;2022-10-16T10:10:22;17.50;52.10
40636;DHT22;26642;55.766;37.828;2022-10-16T10:12:49;17.50;51.90
40636;DHT22;26642;55.766;37.828;2022-10-16T10:15:15;17.40;51.80
40636;DHT22;26642;55.766;37.828;2022-10-16T10:17:57;17.40;51.70
40636;DHT22;26642;55.766;37.828;2022-10-16T10:20:30;17.40;52.30
40636;DHT22;26642;55.766;37.828;2022-10-16T10:22:58;17.40;52.30
40636;DHT22;26642;55.766;37.828;2022-10-16T10:42:17;17.20;51.30
40636;DHT22;26642;55.766;37.828;2022-10-16T10:48:27;17.20;51.30
40636;DHT22;26642;55.766;37.828;2022-10-16T10:50:54;17.10;51.60
40636;DHT22;26642;55.766;37.828;2022-10-16T10:57:08;17.10;51.20
40636;DHT22;26642;55.766;37.828;2022-10-16T11:00:17;17.10;50.80
40636;DHT22;26642;55.766;37.828;2022-10-16T11:03:09;17.10;51.30
40636;DHT22;26642;55.766;37.828;2022-10-16T11:05:54;17.20;51.80
40636;DHT22;26642;55.766;37.828;2022-10-16T11:08:30;17.10;51.50
40636;DHT22;26642;55.766;37.828;2022-10-16T11:11:04;17.10;50.90
40636;DHT22;26642;55.766;37.828;2022-10-16T11:16:27;17.10;51.00
40636;DHT22;26642;55.766;37.828;2022-10-16T11:19:05;17.10;51.30
40636;DHT22;26642;55.766;37.828;2022-10-16T11:21:47;17.10;51.80
40636;DHT22;26642;55.766;37.828;2022-10-16T11:24:34;17.10;52.20
40636;DHT22;26642;55.766;37.828;2022-10-16T11:27:13;17.10;52.10
40636;DHT22;26642;55.766;37.828;2022-10-16T11:30:01;17.20;51.80
40636;DHT22;26642;55.766;37.828;2022-10-16T11:32:47;17.10;51.60
40636;DHT22;26642;55.766;37.828;2022-10-16T11:38:03;17.10;51.70
40636;DHT22;26642;55.766;37.828;2022-10-16T11:40:37;17.10;52.10
40636;DHT22;26642;55.766;37.828;2022-10-16T11:43:14;17.10;52.20
40636;DHT22;26642;55.766;37.828;2022-10-16T11:45:49;17.10;52.40
40636;DHT22;26642;55.766;37.828;2022-10-16T11:51:35;17.10;52.30
40636;DHT22;26642;55.766;37.828;2022-10-16T11:54:31;17.10;52.00
40636;DHT22;26642;55.766;37.828;2022-10-16T11:57:02;17.10;52.20
40636;DHT22;26642;55.766;37.828;2022-10-16T11:59:47;17.00;52.60
40636;DHT22;26642;55.766;37.828;2022-10-16T12:07:48;17.00;52.60
40636;DHT22;26642;55.766;37.828;2022-10-16T12:10:25;17.00;52.50
40636;DHT22;26642;55.766;37.828;2022-10-16T12:12:51;17.00;52.90
40636;DHT22;26642;55.766;37.828;2022-10-16T12:17:52;17.00;52.80
40636;DHT22;26642;55.766;37.828;2022-10-16T12:20:30;17.00;52.80
40636;DHT22;26642;55.766;37.828;2022-10-16T12:23:07;17.00;52.80
40636;DHT22;26642;55.766;37.828;2022-10-16T12:25:57;17.00;53.20
40636;DHT22;26642;55.766;37.828;2022-10-16T12:28:28;17.00;53.50
40636;DHT22;26642;55.766;37.828;2022-10-16T12:30:58;17.00;53.80
40636;DHT22;26642;55.766;37.828;2022-10-16T12:35:52;17.00;53.60
40636;DHT22;26642;55.766;37.828;2022-10-16T12:38:25;17.00;53.50
40636;DHT22;26642;55.766;37.828;2022-10-16T12:43:42;16.90;53.30
40636;DHT22;26642;55.766;37.828;2022-10-16T12:48:40;17.00;53.40
40636;DHT22;26642;55.766;37.828;2022-10-16T12:53:59;16.90;53.30
40636;DHT22;26642;55.766;37.828;2022-10-16T13:01:57;16.90;53.00
40636;DHT22;26642;55.766;37.828;2022-10-16T13:12:41;16.80;53.30
40636;DHT22;26642;55.766;37.828;2022-10-16T13:21:42;16.80;53.20
40636;DHT22;26642;55.766;37.828;2022-10-16T13:24:13;16.80;53.40
40636;DHT22;26642;55.766;37.828;2022-10-16T13:26:46;16.80;53.50
40636;DHT22;26642;55.766;37.828;2022-10-16T13:29:15;16.80;53.50
40636;DHT22;26642;55.766;37.828;2022-10-16T13:31:43;16.70;53.60
40636;DHT22;26642;55.766;37.828;2022-10-16T13:34:14;16.80;53.70
40636;DHT22;26642;55.766;37.828;2022-10-16T13:36:46;16.70;53.50
40636;DHT22;26642;55.766;37.828;2022-10-16T13:39:14;16.70;53.50
40636;DHT22;26642;55.766;37.828;2022-10-16T13:41:40;16.70;53.60
40636;DHT22;26642;55.766;37.828;2022-10-16T13:44:14;16.70;53.50
40636;DHT22;26642;55.766;37.828;2022-10-16T13:46:41;16.70;53.60
40636;DHT22;26642;55.766;37.828;2022-10-16T13:49:17;16.70;53.70
40636;DHT22;26642;55.766;37.828;2022-10-16T13:51:59;16.70;53.70
40636;DHT22;26642;55.766;37.828;2022-10-16T13:54:27;16.70;53.70
40636;DHT22;26642;55.766;37.828;2022-10-16T13:57:04;16.60;53.60
40636;DHT22;26642;55.766;37.828;2022-10-16T13:59:35;16.60;53.50
40636;DHT22;26642;55.766;37.828;2022-10-16T14:02:14;16.60;53.80
40636;DHT22;26642;55.766;37.828;2022-10-16T14:04:42;16.60;53.90
40636;DHT22;26642;55.766;37.828;2022-10-16T14:07:14;16.60;54.00
40636;DHT22;26642;55.766;37.828;2022-10-16T14:09:40;16.50;54.10
40636;DHT22;26642;55.766;37.828;2022-10-16T14:12:11;16.60;54.30
40636;DHT22;26642;55.766;37.828;2022-10-16T14:14:43;16.60;54.00
40636;DHT22;26642;55.766;37.828;2022-10-16T14:17:33;16.50;53.90
40636;DHT22;26642;55.766;37.828;2022-10-16T14:20:03;16.50;53.80
40636;DHT22;26642;55.766;37.828;2022-10-16T14:22:38;16.50;53.80
40636;DHT22;26642;55.766;37.828;2022-10-16T14:27:58;16.60;57.80
40636;DHT22;26642;55.766;37.828;2022-10-16T14:30:29;16.70;56.40
40636;DHT22;26642;55.766;37.828;2022-10-16T14:32:56;16.70;55.00
40636;DHT22;26642;55.766;37.828;2022-10-16T14:37:57;16.70;56.70
40636;DHT22;26642;55.766;37.828;2022-10-16T14:40:26;16.80;57.70
40636;DHT22;26642;55.766;37.828;2022-10-16T14:42:53;16.80;55.80
40636;DHT22;26642;55.766;37.828;2022-10-16T14:45:26;16.80;55.30
40636;DHT22;26642;55.766;37.828;2022-10-16T14:47:54;16.80;55.50
40636;DHT22;26642;55.766;37.828;2022-10-16T14:50:21;16.90;57.80
40636;DHT22;26642;55.766;37.828;2022-10-16T14:52:47;17.00;56.70
40636;DHT22;26642;55.766;37.828;2022-10-16T14:55:13;17.00;55.00
40636;DHT22;26642;55.766;37.828;2022-10-16T14:57:40;17.00;54.40
40636;DHT22;26642;55.766;37.828;2022-10-16T15:00:19;16.90;54.00
40636;DHT22;26642;55.766;37.828;2022-10-16T15:02:46;16.90;54.00
40636;DHT22;26642;55.766;37.828;2022-10-16T15:05:22;16.80;54.10
40636;DHT22;26642;55.766;37.828;2022-10-16T15:07:49;16.80;53.70
40636;DHT22;26642;55.766;37.828;2022-10-16T15:10:17;16.70;52.70
40636;DHT22;26642;55.766;37.828;2022-10-16T15:12:43;16.60;52.30
40636;DHT22;26642;55.766;37.828;2022-10-16T15:15:25;16.60;52.00
40636;DHT22;26642;55.766;37.828;2022-10-16T15:17:56;16.50;52.00
40636;DHT22;26642;55.766;37.828;2022-10-16T15:20:24;16.40;53.90
40636;DHT22;26642;55.766;37.828;2022-10-16T15:22:51;16.50;56.10
40636;DHT22;26642;55.766;37.828;2022-10-16T15:25:43;16.50;54.90
40636;DHT22;26642;55.766;37.828;2022-10-16T15:28:15;16.50;53.50
40636;DHT22;26642;55.766;37.828;2022-10-16T15:30:41;16.40;53.10
40636;DHT22;26642;55.766;37.828;2022-10-16T15:33:16;16.40;53.50
40636;DHT22;26642;55.766;37.828;2022-10-16T15:35:44;16.30;54.00
40636;DHT22;26642;55.766;37.828;2022-10-16T15:38:12;16.30;54.20
40636;DHT22;26642;55.766;37.828;2022-10-16T15:40:40;16.30;54.40
40636;DHT22;26642;55.766;37.828;2022-10-16T15:43:06;16.20;54.40
40636;DHT22;26642;55.766;37.828;2022-10-16T15:45:32;16.20;54.70
40636;DHT22;26642;55.766;37.828;2022-10-16T15:47:58;16.20;54.70
40636;DHT22;26642;55.766;37.828;2022-10-16T15:50:24;16.20;54.70
40636;DHT22;26642;55.766;37.828;2022-10-16T15:52:51;16.10;54.70
40636;DHT22;26642;55.766;37.828;2022-10-16T15:55:17;16.10;54.60
40636;DHT22;26642;55.766;37.828;2022-10-16T15:57:44;16.10;54.70
40636;DHT22;26642;55.766;37.828;2022-10-16T16:00:13;16.10;54.80
40636;DHT22;26642;55.766;37.828;2022-10-16T16:02:40;16.00;55.10
40636;DHT22;26642;55.766;37.828;2022-10-16T16:05:08;16.00;54.90
40636;DHT22;26642;55.766;37.828;2022-10-16T16:07:35;16.00;55.00
40636;DHT22;26642;55.766;37.828;2022-10-16T16:10:02;16.00;55.10
40636;DHT22;26642;55.766;37.828;2022-10-16T16:12:29;16.00;55.00
40636;DHT22;26642;55.766;37.828;2022-10-16T16:14:55;16.00;55.20
40636;DHT22;26642;55.766;37.828;2022-10-16T16:17:21;15.90;55.10
40636;DHT22;26642;55.766;37.828;2022-10-16T16:19:47;15.90;55.10
40636;DHT22;26642;55.766;37.828;2022-10-16T16:22:13;15.90;55.20
40636;DHT22;26642;55.766;37.828;2022-10-16T16:24:39;15.90;55.20
40636;DHT22;26642;55.766;37.828;2022-10-16T16:27:06;15.90;55.30
40636;DHT22;26642;55.766;37.828;2022-10-16T16:29:32;15.80;55.40
40636;DHT22;26642;55.766;37.828;2022-10-16T16:31:59;15.80;55.30
40636;DHT22;26642;55.766;37.828;2022-10-16T16:34:27;15.80;55.50
40636;DHT22;26642;55.766;37.828;2022-10-16T16:36:55;15.80;55.40
40636;DHT22;26642;55.766;37.828;2022-10-16T16:39:21;15.80;55.50
40636;DHT22;26642;55.766;37.828;2022-10-16T16:41:47;15.80;55.50
40636;DHT22;26642;55.766;37.828;2022-10-16T16:44:14;15.80;55.60
40636;DHT22;26642;55.766;37.828;2022-10-16T16:46:42;15.80;55.40
40636;DHT22;26642;55.766;37.828;2022-10-16T16:49:12;15.70;55.60
40636;DHT22;26642;55.766;37.828;2022-10-16T16:51:38;15.70;55.60
40636;DHT22;26642;55.766;37.828;2022-10-16T16:54:04;15.70;55.50
40636;DHT22;26642;55.766;37.828;2022-10-16T16:56:31;15.70;55.70
40636;DHT22;26642;55.766;37.828;2022-10-16T16:58:57;15.70;55.80
40636;DHT22;26642;55.766;37.828;2022-10-16T17:01:25;15.70;55.90
40636;DHT22;26642;55.766;37.828;2022-10-16T17:03:53;15.70;56.30
40636;DHT22;26642;55.766;37.828;2022-10-16T17:06:21;15.60;55.60
40636;DHT22;26642;55.766;37.828;2022-10-16T17:08:48;15.60;55.50
40636;DHT22;26642;55.766;37.828;2022-10-16T17:11:20;15.60;55.50
40636;DHT22;26642;55.766;37.828;2022-10-16T17:13:47;15.60;55.60
40636;DHT22;26642;55.766;37.828;2022-10-16T17:16:13;15.50;55.60
40636;DHT22;26642;55.766;37.828;2022-10-16T17:18:39;15.60;55.60
40636;DHT22;26642;55.766;37.828;2022-10-16T17:21:07;15.50;55.60
40636;DHT22;26642;55.766;37.828;2022-10-16T17:23:35;15.50;55.70